Time;durP1;ratioP1;P1;durP2;ratioP2;P2;SDS_P1;SDS_P2;PMS_P1;PMS_P2;Temp;Humidity;BMP_temperature;BMP_pressure;BME280_temperature;BME280_humidity;BME280_pressure;Samples;Min_cycle;Max_cycle;Signal;HPM_P1;HPM_P2
2021/08/14 00:01:50;;;;;;;20.23;7.33;;;;;;;13.24;90.21;100137.80;1659516;86;20943;-70
2021/08/14 00:04:16;;;;;;;16.60;7.37;;;;;;;13.21;90.45;100132.92;1659555;86;20916;-70
2021/08/14 00:06:42;;;;;;;14.43;7.25;;;;;;;13.19;90.72;100133.23;1659913;85;21073;-70
2021/08/14 00:09:09;;;;;;;15.32;6.65;;;;;;;13.20;90.84;100134.05;1654486;85;21483;-70
2021/08/14 00:11:37;;;;;;;11.57;6.30;;;;;;;13.19;90.81;100131.86;1636100;87;20908;-69
2021/08/14 00:14:04;;;;;;;22.70;7.22;;;;;;;13.15;90.97;100128.09;1636177;87;21003;-69
2021/08/14 00:16:30;;;;;;;14.75;7.33;;;;;;;13.12;91.01;100128.72;1636199;87;21038;-69
2021/08/14 00:18:59;;;;;;;13.95;7.33;;;;;;;13.11;91.11;100133.17;1636189;87;20959;-69
2021/08/14 00:21:27;;;;;;;14.85;6.97;;;;;;;13.12;91.30;100138.94;1636247;87;21439;-69
2021/08/14 00:23:56;;;;;;;15.75;6.95;;;;;;;13.12;91.26;100136.17;1599465;87;20996;-69
2021/08/14 00:26:22;;;;;;;13.45;7.28;;;;;;;13.11;91.46;100139.50;1636211;87;21043;-69
2021/08/14 00:28:49;;;;;;;13.03;7.42;;;;;;;13.13;91.71;100140.00;1636106;87;20919;-69
2021/08/14 00:31:17;;;;;;;18.60;7.80;;;;;;;13.15;91.86;100134.16;1636258;87;21047;-69
2021/08/14 00:33:45;;;;;;;15.08;7.47;;;;;;;13.17;92.05;100138.26;1616565;86;21022;-69
2021/08/14 00:36:11;;;;;;;17.35;7.60;;;;;;;13.18;92.13;100137.12;1625670;87;21487;-69
2021/08/14 00:38:38;;;;;;;16.80;8.78;;;;;;;13.20;92.13;100140.95;1605863;87;21454;-69
2021/08/14 00:41:04;;;;;;;15.93;7.90;;;;;;;13.19;93.24;100141.52;1621542;87;21068;-70
2021/08/14 00:43:30;;;;;;;21.75;7.78;;;;;;;13.21;94.08;100139.25;1636030;87;20991;-70
2021/08/14 00:46:02;;;;;;;20.00;7.97;;;;;;;13.19;93.75;100142.89;1636168;87;20915;-70
2021/08/14 00:48:28;;;;;;;19.42;8.50;;;;;;;13.17;93.53;100142.39;1636387;87;21129;-71
2021/08/14 00:50:57;;;;;;;20.55;8.25;;;;;;;13.16;93.35;100145.47;1636231;87;20876;-69
2021/08/14 00:53:24;;;;;;;20.00;8.20;;;;;;;13.13;93.16;100146.88;1636124;87;20999;-70
2021/08/14 00:55:54;;;;;;;15.70;7.47;;;;;;;13.10;93.14;100149.47;1636153;87;20971;-70
2021/08/14 00:58:22;;;;;;;17.80;7.78;;;;;;;13.07;93.42;100146.78;1636142;87;22168;-70
2021/08/14 01:00:49;;;;;;;18.02;8.63;;;;;;;13.06;93.61;100148.47;1636144;87;21168;-70
2021/08/14 01:03:16;;;;;;;21.50;8.85;;;;;;;13.04;93.62;100146.59;1636055;86;21663;-72
2021/08/14 01:05:45;;;;;;;18.55;8.80;;;;;;;13.03;93.65;100147.73;1636211;87;21498;-70
2021/08/14 01:08:14;;;;;;;18.90;7.97;;;;;;;13.00;93.58;100142.84;1636124;87;21564;-70
2021/08/14 01:10:40;;;;;;;19.32;8.43;;;;;;;12.95;93.80;100150.69;1642851;86;20911;-70
2021/08/14 01:13:09;;;;;;;19.10;7.62;;;;;;;12.92;93.63;100154.64;1691006;85;20935;-70
2021/08/14 01:15:45;;;;;;;16.52;7.40;;;;;;;12.87;93.72;100155.59;1690860;84;20907;-70
2021/08/14 01:18:12;;;;;;;20.68;7.80;;;;;;;12.85;93.79;100155.09;1652304;85;21482;-70
2021/08/14 01:20:43;;;;;;;21.02;7.75;;;;;;;12.82;93.76;100159.86;1690952;84;21050;-70
2021/08/14 01:23:13;;;;;;;14.75;8.08;;;;;;;12.79;94.06;100155.79;1672957;85;21467;-70
2021/08/14 01:25:41;;;;;;;14.73;7.78;;;;;;;12.81;94.34;100162.36;1691017;85;21112;-71
2021/08/14 01:28:08;;;;;;;16.05;8.18;;;;;;;12.80;94.46;100157.41;1691241;84;20939;-70
2021/08/14 01:30:38;;;;;;;14.47;8.13;;;;;;;12.81;94.38;100165.12;1696739;84;20943;-70
2021/08/14 01:33:06;;;;;;;18.70;7.62;;;;;;;12.83;94.41;100165.05;1691040;84;20887;-69
2021/08/14 01:35:32;;;;;;;18.23;8.40;;;;;;;12.83;94.34;100166.43;1673264;85;21572;-70
2021/08/14 01:37:59;;;;;;;13.83;7.97;;;;;;;12.84;94.21;100168.62;1690997;85;21142;-70
2021/08/14 01:40:25;;;;;;;17.00;7.55;;;;;;;12.82;94.04;100166.18;1690833;84;20947;-70
2021/08/14 01:42:52;;;;;;;17.92;7.72;;;;;;;12.80;93.97;100165.69;1691282;84;21071;-70
2021/08/14 01:45:18;;;;;;;18.07;7.92;;;;;;;12.78;94.02;100165.75;1690981;84;20887;-69
2021/08/14 01:47:45;;;;;;;15.20;7.62;;;;;;;12.74;94.03;100160.05;1691048;85;21006;-69
2021/08/14 01:50:13;;;;;;;15.85;6.90;;;;;;;12.73;93.97;100165.87;1691087;84;21002;-69
2021/08/14 01:52:39;;;;;;;16.80;7.87;;;;;;;12.70;93.90;100162.41;1690974;84;21680;-69
2021/08/14 01:55:08;;;;;;;12.60;7.87;;;;;;;12.68;93.92;100166.04;1690932;85;20915;-69
2021/08/14 01:57:35;;;;;;;13.50;7.90;;;;;;;12.65;93.98;100161.97;1684586;83;20976;-69
2021/08/14 02:00:02;;;;;;;16.17;7.17;;;;;;;12.62;94.03;100169.48;1667820;85;21575;-69
2021/08/14 02:02:31;;;;;;;20.90;7.87;;;;;;;12.58;94.12;100176.75;1680049;83;21163;-70
2021/08/14 02:04:58;;;;;;;17.70;7.62;;;;;;;12.53;94.09;100168.61;1668923;84;20864;-70
2021/08/14 02:07:26;;;;;;;14.15;7.25;;;;;;;12.49;94.17;100168.42;1691006;84;20876;-70
2021/08/14 02:09:54;;;;;;;16.12;7.20;;;;;;;12.47;94.07;100166.55;1689645;85;20991;-70
2021/08/14 02:12:20;;;;;;;20.80;7.00;;;;;;;12.44;93.96;100169.92;1688199;84;21027;-70
2021/08/14 02:14:48;;;;;;;12.60;7.28;;;;;;;12.40;94.03;100166.17;1658966;86;21138;-68
2021/08/14 02:17:15;;;;;;;16.67;7.75;;;;;;;12.38;94.20;100166.23;1688088;83;20995;-69
2021/08/14 02:19:42;;;;;;;21.17;7.53;;;;;;;12.36;94.19;100170.67;1659023;86;20959;-71
2021/08/14 02:22:09;;;;;;;17.02;7.10;;;;;;;12.34;94.22;100170.73;1688296;85;20919;-70
2021/08/14 02:24:36;;;;;;;15.55;7.60;;;;;;;12.33;94.38;100168.55;1659030;86;20920;-70
2021/08/14 02:27:03;;;;;;;17.67;7.95;;;;;;;12.31;94.37;100168.05;1688177;85;21158;-69
2021/08/14 02:29:33;;;;;;;19.10;6.80;;;;;;;12.29;94.30;100168.10;1659242;86;21467;-68
2021/08/14 02:32:00;;;;;;;22.05;6.92;;;;;;;12.28;94.27;100173.36;1688322;85;20962;-69
2021/08/14 02:34:28;;;;;;;16.37;7.42;;;;;;;12.24;94.23;100173.98;1659263;86;20996;-70
2021/08/14 02:36:54;;;;;;;14.47;7.45;;;;;;;12.23;94.33;100175.66;1688343;84;21073;-69
2021/08/14 02:39:22;;;;;;;16.67;6.97;;;;;;;12.21;94.31;100172.41;1658934;85;21996;-69
2021/08/14 02:41:49;;;;;;;13.98;6.85;;;;;;;12.16;94.23;100174.72;1688179;84;20896;-69
2021/08/14 02:44:16;;;;;;;15.83;7.03;;;;;;;12.15;94.32;100177.22;1658870;86;20971;-69
2021/08/14 02:46:42;;;;;;;20.17;7.08;;;;;;;12.12;94.21;100178.44;1688214;85;20979;-70
2021/08/14 02:49:09;;;;;;;15.08;7.33;;;;;;;12.08;94.29;100172.73;1659048;86;21012;-70
2021/08/14 02:51:37;;;;;;;12.70;6.50;;;;;;;12.05;94.20;100173.92;1688265;84;20935;-70
2021/08/14 02:54:06;;;;;;;17.85;6.72;;;;;;;12.02;94.29;100178.66;1659070;86;21466;-70
2021/08/14 02:56:33;;;;;;;13.08;6.55;;;;;;;12.00;94.40;100180.35;1688265;85;20991;-70
2021/08/14 02:59:00;;;;;;;17.42;7.00;;;;;;;11.98;94.45;100171.59;1658952;86;20959;-70
2021/08/14 03:01:28;;;;;;;19.15;7.60;;;;;;;11.97;94.52;100170.52;1688173;85;21008;-70
2021/08/14 03:03:57;;;;;;;17.02;6.33;;;;;;;11.97;94.62;100167.77;1658878;86;20912;-70
2021/08/14 03:06:28;;;;;;;15.93;7.05;;;;;;;11.96;94.78;100165.58;1688082;85;20986;-70
2021/08/14 03:08:57;;;;;;;12.88;6.45;;;;;;;11.96;94.85;100162.83;1645861;85;21475;-70
2021/08/14 03:11:24;;;;;;;19.27;6.90;;;;;;;11.95;94.89;100161.20;1656181;86;21516;-70
2021/08/14 03:13:54;;;;;;;12.30;7.80;;;;;;;11.98;95.18;100163.90;1642563;87;21023;-71
2021/08/14 03:16:23;;;;;;;11.00;7.35;;;;;;;12.00;95.31;100159.72;1690816;85;20939;-71
2021/08/14 03:18:51;;;;;;;18.55;7.40;;;;;;;12.02;95.40;100161.59;1690744;84;21041;-72
2021/08/14 03:21:19;;;;;;;14.58;7.10;;;;;;;12.04;95.45;100155.78;1690873;84;20955;-71
2021/08/14 03:23:45;;;;;;;11.88;6.58;;;;;;;12.06;95.43;100157.66;1690944;85;20975;-70
2021/08/14 03:26:13;;;;;;;22.10;7.37;;;;;;;12.10;95.58;100151.78;1690767;84;21569;-70
2021/08/14 03:28:39;;;;;;;15.25;7.47;;;;;;;12.12;95.86;100153.66;1690919;84;21083;-71
2021/08/14 03:31:06;;;;;;;15.38;7.97;;;;;;;12.16;95.97;100150.51;1690739;84;21451;-71
2021/08/14 03:33:32;;;;;;;15.50;8.20;;;;;;;12.19;95.90;100154.83;1690981;85;20958;-70
2021/08/14 03:35:58;;;;;;;16.60;7.70;;;;;;;12.23;96.12;100152.27;1690843;84;22212;-71
2021/08/14 03:38:25;;;;;;;15.10;7.80;;;;;;;12.28;96.24;100156.28;1690873;84;21502;-71
2021/08/14 03:40:53;;;;;;;13.90;8.03;;;;;;;12.31;96.65;100150.14;1690831;84;21510;-73
2021/08/14 03:43:21;;;;;;;13.22;7.70;;;;;;;12.35;96.99;100148.39;1689822;83;20907;-76
2021/08/14 03:45:47;;;;;;;16.37;7.78;;;;;;;12.41;97.36;100149.90;1686477;85;21581;-72
2021/08/14 03:48:14;;;;;;;15.65;8.80;;;;;;;12.49;97.64;100152.47;1690761;85;20967;-71
2021/08/14 03:50:40;;;;;;;17.55;9.28;;;;;;;12.56;97.83;100146.77;1690236;83;20994;-72
2021/08/14 03:53:08;;;;;;;17.80;8.43;;;;;;;12.66;98.10;100147.63;1685450;84;21952;-70
2021/08/14 03:55:36;;;;;;;18.35;7.90;;;;;;;12.75;98.53;100145.16;1709185;83;21471;-70
2021/08/14 03:58:03;;;;;;;20.92;9.35;;;;;;;12.87;98.81;100145.38;1719558;83;20971;-70
2021/08/14 04:00:31;;;;;;;19.57;8.43;;;;;;;13.00;99.13;100153.31;1719882;83;20991;-71
2021/08/14 04:02:58;;;;;;;14.60;8.08;;;;;;;13.11;99.22;100151.09;1719945;83;20864;-70
2021/08/14 04:05:26;;;;;;;12.58;7.80;;;;;;;13.23;99.55;100154.66;1719363;83;21129;-71
2021/08/14 04:07:54;;;;;;;17.67;8.83;;;;;;;13.35;99.66;100150.70;1695287;83;22086;-70
2021/08/14 04:10:23;;;;;;;17.07;8.13;;;;;;;13.47;99.74;100156.42;1677918;85;21002;-70
2021/08/14 04:12:50;;;;;;;16.60;8.10;;;;;;;13.57;99.89;100154.75;1687920;84;22125;-69
2021/08/14 04:15:17;;;;;;;18.75;7.90;;;;;;;13.69;100.00;100157.70;1658835;86;20919;-70
2021/08/14 04:17:44;;;;;;;16.27;8.00;;;;;;;13.81;100.00;100161.20;1687935;85;21774;-70
2021/08/14 04:20:13;;;;;;;21.62;8.13;;;;;;;13.93;99.97;100163.31;1658678;86;21536;-70
2021/08/14 04:22:41;;;;;;;18.45;8.20;;;;;;;14.02;99.77;100163.56;1687816;85;21062;-71
2021/08/14 04:25:10;;;;;;;17.02;8.05;;;;;;;14.14;99.58;100162.92;1657792;86;21533;-73
2021/08/14 04:27:36;;;;;;;16.57;8.28;;;;;;;14.24;99.27;100161.22;1694087;84;20869;-71
2021/08/14 04:30:06;;;;;;;21.35;7.33;;;;;;;14.37;98.86;100160.24;1697507;84;21194;-72
2021/08/14 04:32:35;;;;;;;14.30;8.25;;;;;;;14.48;98.57;100160.16;1666590;84;21012;-72
2021/08/14 04:35:08;;;;;;;14.53;7.92;;;;;;;14.60;98.27;100156.73;1645074;84;21543;-71
2021/08/14 04:37:38;;;;;;;11.83;6.50;;;;;;;14.70;97.77;100155.58;1708283;83;21434;-70
2021/08/14 04:40:10;;;;;;;14.83;7.37;;;;;;;14.80;96.37;100157.42;1704763;83;21016;-70
2021/08/14 04:42:37;;;;;;;14.13;5.90;;;;;;;14.92;94.93;100155.36;1676608;84;21122;-70
2021/08/14 04:45:08;;;;;;;15.98;6.78;;;;;;;15.04;94.15;100160.98;1667769;84;20995;-70
2021/08/14 04:47:34;;;;;;;14.28;7.33;;;;;;;15.17;93.87;100165.49;1665840;86;21454;-70
2021/08/14 04:50:04;;;;;;;14.15;7.85;;;;;;;15.30;93.48;100165.61;1665864;86;21458;-70
2021/08/14 04:52:31;;;;;;;17.32;7.25;;;;;;;15.42;92.55;100161.56;1697112;84;20921;-72
2021/08/14 04:54:59;;;;;;;22.67;9.53;;;;;;;15.55;91.90;100165.25;1696520;84;21139;-73
2021/08/14 04:57:26;;;;;;;22.45;9.13;;;;;;;15.68;90.78;100165.58;1696764;84;21496;-72
2021/08/14 04:59:52;;;;;;;21.52;8.93;;;;;;;15.77;89.50;100168.54;1696786;84;21602;-71
2021/08/14 05:02:19;;;;;;;17.32;8.68;;;;;;;15.88;88.51;100168.96;1696561;84;21044;-71
2021/08/14 05:04:47;;;;;;;16.75;8.70;;;;;;;16.00;87.91;100168.23;1696512;84;20978;-72
2021/08/14 05:07:16;;;;;;;21.33;8.50;;;;;;;16.12;87.69;100166.92;1696816;84;20913;-71
2021/08/14 05:09:45;;;;;;;16.27;7.60;;;;;;;16.23;86.95;100166.72;1697096;84;20977;-70
2021/08/14 05:12:12;;;;;;;12.53;8.03;;;;;;;16.34;85.47;100168.51;1692708;84;20912;-72
2021/08/14 05:14:38;;;;;;;15.20;7.22;;;;;;;16.45;85.20;100162.79;1692651;84;20897;-71
2021/08/14 05:17:06;;;;;;;16.27;7.20;;;;;;;16.56;84.73;100165.95;1692683;84;20838;-70
2021/08/14 05:19:33;;;;;;;17.98;7.00;;;;;;;16.68;83.76;100166.03;1692600;84;21044;-71
2021/08/14 05:22:00;;;;;;;12.03;6.85;;;;;;;16.78;82.43;100166.38;1692642;84;20846;-71
2021/08/14 05:24:26;;;;;;;16.20;7.10;;;;;;;16.89;83.31;100166.77;1692641;84;20921;-69
2021/08/14 05:26:54;;;;;;;15.25;6.85;;;;;;;17.01;82.67;100161.24;1692630;84;21495;-70
2021/08/14 05:29:20;;;;;;;11.35;6.45;;;;;;;17.10;81.04;100150.86;1692721;84;20897;-71
2021/08/14 05:31:47;;;;;;;17.70;7.55;;;;;;;17.22;80.44;100163.13;1692781;84;21211;-71
2021/08/14 05:34:13;;;;;;;12.90;7.10;;;;;;;17.33;80.26;100160.91;1671908;84;20880;-71
2021/08/14 05:36:40;;;;;;;16.62;6.97;;;;;;;17.45;79.85;100167.05;1631073;86;20892;-71
2021/08/14 05:39:06;;;;;;;16.57;7.15;;;;;;;17.56;78.49;100164.05;1659429;86;20959;-74
2021/08/14 05:41:39;;;;;;;12.98;6.75;;;;;;;17.67;78.70;100164.42;1658783;84;20991;-71
2021/08/14 05:44:02;;;;;;;12.13;6.22;;;;;;;17.83;77.77;100171.47;1635339;84;21179;-73
2021/08/14 05:46:30;;;;;;;10.78;6.45;;;;;;;17.93;76.37;100168.19;1641862;86;21447;-73
2021/08/14 05:48:57;;;;;;;15.28;6.78;;;;;;;18.02;75.65;100171.06;1659452;86;21467;-73
2021/08/14 05:51:25;;;;;;;20.52;6.28;;;;;;;18.15;76.06;100170.45;1656816;84;21098;-77
2021/08/14 05:53:54;;;;;;;13.72;6.28;;;;;;;18.29;75.87;100167.30;1655071;86;20945;-73
2021/08/14 05:56:20;;;;;;;11.55;7.72;;;;;;;18.41;74.87;100169.45;1654064;86;21078;-73
2021/08/14 05:58:49;;;;;;;11.35;6.67;;;;;;;18.52;74.58;100168.92;1654487;85;21039;-73
2021/08/14 06:01:15;;;;;;;13.93;6.45;;;;;;;18.65;76.02;100172.72;1655163;86;21051;-72
2021/08/14 06:03:43;;;;;;;13.88;6.58;;;;;;;18.79;75.00;100177.87;1656016;86;21058;-73
2021/08/14 06:06:09;;;;;;;11.83;5.58;;;;;;;18.91;74.30;100175.02;1653767;84;21099;-73
2021/08/14 06:08:40;;;;;;;14.25;6.50;;;;;;;19.06;73.48;100173.44;1655344;85;21423;-72
2021/08/14 06:11:06;;;;;;;14.43;6.67;;;;;;;19.19;74.09;100167.17;1655728;86;21000;-73
2021/08/14 06:13:34;;;;;;;13.43;6.87;;;;;;;19.32;73.08;100167.31;1656260;86;21576;-75
2021/08/14 06:16:02;;;;;;;14.63;8.08;;;;;;;19.46;72.67;100171.85;1656235;86;20976;-72
2021/08/14 06:18:29;;;;;;;13.85;5.97;;;;;;;19.60;73.98;100172.23;1655940;86;21092;-73
2021/08/14 06:20:57;;;;;;;12.75;6.10;;;;;;;19.77;71.91;100169.62;1656002;86;21022;-73
2021/08/14 06:23:24;;;;;;;23.67;6.58;;;;;;;19.86;71.30;100168.84;1655118;86;20979;-71
2021/08/14 06:25:51;;;;;;;12.60;6.00;;;;;;;19.98;72.11;100165.13;1656024;86;21095;-73
2021/08/14 06:28:18;;;;;;;14.00;6.30;;;;;;;20.15;72.20;100173.66;1656063;86;21043;-72
2021/08/14 06:30:44;;;;;;;13.08;6.05;;;;;;;20.31;70.13;100168.81;1656416;86;21525;-72
2021/08/14 06:33:11;;;;;;;12.47;5.83;;;;;;;20.42;69.45;100169.29;1654173;86;21099;-72
2021/08/14 06:35:39;;;;;;;22.42;6.05;;;;;;;20.55;69.21;100167.16;1645415;86;20977;-73
2021/08/14 06:38:09;;;;;;;14.18;6.35;;;;;;;20.72;69.92;100168.69;1653043;84;21602;-75
2021/08/14 06:40:36;;;;;;;10.90;5.25;;;;;;;20.89;68.69;100168.20;1656015;86;21047;-73
2021/08/14 06:43:04;;;;;;;61.53;8.53;;;;;;;21.02;67.42;100164.06;1656440;86;21010;-75
2021/08/14 06:45:31;;;;;;;15.32;5.83;;;;;;;21.13;65.78;100171.83;1655973;86;21183;-74
2021/08/14 06:47:59;;;;;;;10.10;5.40;;;;;;;21.20;66.00;100171.95;1655858;86;21070;-76
2021/08/14 06:50:26;;;;;;;10.10;5.05;;;;;;;21.34;65.61;100163.85;1652620;86;20959;-73
2021/08/14 06:52:53;;;;;;;14.87;5.28;;;;;;;21.51;65.63;100170.89;1656007;86;22233;-74
2021/08/14 06:55:21;;;;;;;9.18;4.83;;;;;;;21.67;65.11;100165.96;1656240;86;21519;-74
2021/08/14 06:57:48;;;;;;;8.85;4.62;;;;;;;21.83;62.69;100171.40;1657163;86;21505;-73
2021/08/14 07:00:17;;;;;;;10.98;4.78;;;;;;;21.98;61.52;100173.19;1658799;84;20975;-75
2021/08/14 07:02:43;;;;;;;9.10;4.80;;;;;;;22.10;61.27;100170.20;1657706;85;21023;-74
2021/08/14 07:05:11;;;;;;;7.92;4.92;;;;;;;22.27;61.42;100167.44;1655557;86;21082;-74
2021/08/14 07:07:38;;;;;;;10.50;4.95;;;;;;;22.43;60.67;100171.44;1656030;86;21113;-75
2021/08/14 07:10:07;;;;;;;10.78;5.08;;;;;;;22.55;59.54;100168.36;1655132;86;21146;-71
2021/08/14 07:12:33;;;;;;;12.65;4.40;;;;;;;22.66;58.85;100172.91;1655685;86;21083;-71
2021/08/14 07:15:02;;;;;;;9.88;4.50;;;;;;;22.74;55.99;100168.20;1655747;86;21046;-72
2021/08/14 07:17:31;;;;;;;6.47;4.30;;;;;;;22.82;54.84;100164.91;1649736;84;21566;-72
2021/08/14 07:19:57;;;;;;;8.55;4.80;;;;;;;22.87;54.66;100158.97;1643836;86;21522;-73
2021/08/14 07:22:26;;;;;;;6.45;4.42;;;;;;;22.98;55.28;100159.30;1639918;86;21007;-72
2021/08/14 07:24:53;;;;;;;6.22;3.80;;;;;;;23.10;54.71;100152.61;1658753;86;20939;-74
2021/08/14 07:27:19;;;;;;;7.40;3.45;;;;;;;23.24;55.17;100158.91;1658943;86;20979;-74
2021/08/14 07:29:46;;;;;;;7.87;4.10;;;;;;;23.38;52.45;100154.84;1654528;84;21522;-73
2021/08/14 07:32:13;;;;;;;8.58;4.12;;;;;;;23.50;51.75;100150.34;1652517;86;21602;-73
2021/08/14 07:34:40;;;;;;;9.45;3.85;;;;;;;23.64;51.89;100145.47;1659010;86;21584;-72
2021/08/14 07:37:07;;;;;;;6.08;3.52;;;;;;;23.78;53.29;100146.14;1673392;84;20935;-73
2021/08/14 07:39:34;;;;;;;4.58;3.47;;;;;;;23.92;51.71;100144.83;1676946;85;21090;-74
2021/08/14 07:42:03;;;;;;;5.90;3.77;;;;;;;24.00;48.85;100139.47;1670377;85;22213;-73
2021/08/14 07:44:31;;;;;;;8.70;3.80;;;;;;;24.01;47.42;100136.28;1660245;84;21039;-72
2021/08/14 07:46:57;;;;;;;7.80;3.98;;;;;;;24.06;48.90;100139.30;1686662;84;21099;-72
2021/08/14 07:49:24;;;;;;;7.12;4.15;;;;;;;24.21;49.28;100130.37;1685121;84;21106;-75
2021/08/14 07:51:50;;;;;;;12.05;4.83;;;;;;;24.42;49.29;100134.67;1685446;84;21074;-74
2021/08/14 07:54:17;;;;;;;14.23;6.03;;;;;;;24.59;48.53;100142.95;1685595;84;21043;-73
2021/08/14 07:56:44;;;;;;;5.58;3.52;;;;;;;24.75;48.72;100139.19;1685749;85;21071;-73
2021/08/14 07:59:10;;;;;;;5.85;3.98;;;;;;;25.01;46.68;100131.02;1672811;85;21000;-73
2021/08/14 08:01:38;;;;;;;4.53;3.60;;;;;;;25.37;46.57;100133.87;1652910;86;21043;-74
2021/08/14 08:04:04;;;;;;;8.93;3.40;;;;;;;25.84;46.42;100130.61;1653519;86;20988;-73
2021/08/14 08:06:30;;;;;;;6.83;3.92;;;;;;;26.24;43.70;100130.67;1654002;86;20948;-73
2021/08/14 08:08:57;;;;;;;9.60;3.72;;;;;;;26.50;42.26;100124.36;1654083;86;21067;-73
2021/08/14 08:11:23;;;;;;;5.83;3.55;;;;;;;26.75;42.21;100117.97;1659184;85;21153;-73
2021/08/14 08:13:51;;;;;;;8.30;3.58;;;;;;;26.98;41.61;100122.28;1683329;85;21034;-73
2021/08/14 08:16:18;;;;;;;5.28;3.50;;;;;;;27.22;41.16;100120.66;1678258;83;20946;-73
2021/08/14 08:18:45;;;;;;;5.85;3.25;;;;;;;27.44;40.28;100119.88;1693181;82;21045;-72
2021/08/14 08:21:11;;;;;;;7.15;3.22;;;;;;;27.64;37.52;100119.33;1699032;83;21640;-72
2021/08/14 08:23:38;;;;;;;7.35;3.60;;;;;;;27.73;37.87;100118.23;1705050;83;21120;-74
2021/08/14 08:26:05;;;;;;;6.05;3.67;;;;;;;27.78;36.48;100117.75;1679133;85;21562;-73
2021/08/14 08:28:32;;;;;;;4.65;2.95;;;;;;;27.79;37.09;100115.12;1692489;84;21011;-76
2021/08/14 08:30:59;;;;;;;5.22;2.80;;;;;;;27.89;36.50;100116.42;1711159;83;20867;-75
2021/08/14 08:33:25;;;;;;;6.40;3.33;;;;;;;27.97;36.81;100116.34;1680167;84;20965;-74
2021/08/14 08:35:51;;;;;;;4.10;2.30;;;;;;;28.10;36.51;100114.58;1681185;85;21179;-73
2021/08/14 08:38:20;;;;;;;27.40;4.85;;;;;;;28.37;35.94;100112.63;1701248;83;21633;-76
2021/08/14 08:40:47;;;;;;;8.33;2.35;;;;;;;28.75;35.03;100106.27;1689340;83;20993;-73
2021/08/14 08:43:15;;;;;;;3.22;2.35;;;;;;;29.02;32.75;100109.71;1678218;85;21395;-74
2021/08/14 08:45:44;;;;;;;5.83;2.50;;;;;;;29.12;33.48;100111.57;1678289;85;21584;-74
2021/08/14 08:48:10;;;;;;;13.83;3.37;;;;;;;29.28;33.59;100113.12;1627057;85;21117;-74
2021/08/14 08:50:37;;;;;;;4.40;2.70;;;;;;;29.51;31.34;100110.92;1678193;85;21395;-74
2021/08/14 08:53:04;;;;;;;3.95;2.92;;;;;;;29.48;32.29;100103.30;1678364;85;21493;-74
2021/08/14 08:55:31;;;;;;;6.47;2.95;;;;;;;29.30;33.02;100105.02;1678195;85;20954;-74
2021/08/14 08:57:58;;;;;;;7.95;3.17;;;;;;;29.38;33.81;100103.66;1678639;85;21047;-75
2021/08/14 09:00:25;;;;;;;5.05;2.85;;;;;;;29.51;32.07;100103.23;1678217;85;21147;-75
2021/08/14 09:03:13;;;;;;;12.05;3.33;;;;;;;29.49;31.92;100101.45;1678036;85;21797;-75
2021/08/14 09:05:51;;;;;;;4.03;2.60;;;;;;;29.45;32.74;100095.09;1678184;85;21449;-75
2021/08/14 09:08:20;;;;;;;3.95;2.60;;;;;;;29.56;34.26;100103.35;1678607;85;20919;-76
2021/08/14 09:10:49;;;;;;;4.50;3.22;;;;;;;29.56;32.16;100095.67;1678177;85;21053;-76
2021/08/14 09:13:20;;;;;;;3.37;2.25;;;;;;;29.43;31.52;100089.67;1662281;85;21188;-75
2021/08/14 09:15:47;;;;;;;25.52;3.95;;;;;;;29.19;31.99;100086.81;1659188;85;21467;-74
2021/08/14 09:18:16;;;;;;;4.42;2.47;;;;;;;29.12;33.09;100079.86;1658990;86;21059;-74
2021/08/14 09:20:52;;;;;;;4.50;2.55;;;;;;;29.31;32.41;100084.61;1659190;86;21539;-73
2021/08/14 09:23:21;;;;;;;3.08;2.50;;;;;;;29.43;32.96;100093.30;1640100;86;21024;-73
2021/08/14 09:25:53;;;;;;;4.15;2.37;;;;;;;29.67;32.02;100086.19;1640332;86;21156;-72
2021/08/14 09:28:32;;;;;;;3.95;2.40;;;;;;;29.82;33.50;100078.41;1659065;86;21495;-73
2021/08/14 09:31:01;;;;;;;4.80;2.70;;;;;;;29.92;31.12;100072.98;1659279;86;21401;-74
2021/08/14 09:33:34;;;;;;;7.20;3.00;;;;;;;29.93;32.75;100075.38;1658904;86;20923;-74
2021/08/14 09:36:09;;;;;;;4.12;2.42;;;;;;;30.19;32.59;100070.19;1658978;86;21042;-74
2021/08/14 09:38:49;;;;;;;4.40;3.02;;;;;;;30.38;31.66;100073.44;1645613;84;21146;-74
2021/08/14 09:41:18;;;;;;;4.63;2.97;;;;;;;30.42;31.22;100066.45;1640464;86;20978;-72
2021/08/14 09:43:50;;;;;;;4.58;2.80;;;;;;;30.39;30.49;100069.37;1656054;86;21496;-74
2021/08/14 09:46:18;;;;;;;4.17;2.70;;;;;;;30.34;30.22;100065.63;1659237;86;20916;-73
2021/08/14 09:48:54;;;;;;;5.15;3.08;;;;;;;30.31;31.04;100062.26;1658941;86;21058;-74
2021/08/14 09:51:31;;;;;;;3.95;2.65;;;;;;;30.33;31.32;100061.20;1658737;86;23245;-74
2021/08/14 09:54:03;;;;;;;7.00;2.65;;;;;;;30.47;31.42;100059.48;1658858;86;20904;-72
2021/08/14 09:56:36;;;;;;;4.90;3.00;;;;;;;30.46;29.73;100061.51;1659370;86;20959;-72
2021/08/14 09:59:04;;;;;;;7.08;2.85;;;;;;;30.26;31.02;100055.70;1659086;86;21526;-73
2021/08/14 10:01:34;;;;;;;10.38;2.75;;;;;;;30.27;31.59;100056.67;1659038;86;20919;-74
2021/08/14 10:04:03;;;;;;;5.67;2.47;;;;;;;30.31;31.00;100055.18;1659117;85;20982;-72
2021/08/14 10:06:30;;;;;;;6.20;3.08;;;;;;;30.32;30.96;100044.83;1659051;86;20960;-74
2021/08/14 10:08:58;;;;;;;28.30;3.80;;;;;;;30.21;32.78;100047.89;1659005;86;20884;-74
2021/08/14 10:11:24;;;;;;;5.90;2.85;;;;;;;30.41;33.15;100044.23;1658748;86;22162;-74
2021/08/14 10:13:53;;;;;;;3.72;2.58;;;;;;;30.70;30.69;100042.34;1662790;86;20991;-74
2021/08/14 10:16:20;;;;;;;4.10;2.60;;;;;;;30.78;29.53;100045.81;1663058;86;21078;-75
2021/08/14 10:18:48;;;;;;;4.33;2.40;;;;;;;30.77;29.63;100042.17;1662984;86;20994;-74
2021/08/14 10:21:16;;;;;;;3.50;2.52;;;;;;;30.71;29.25;100034.64;1663134;86;20978;-74
2021/08/14 10:23:44;;;;;;;7.35;2.40;;;;;;;30.61;29.28;100032.89;1666277;86;21019;-74
2021/08/14 10:26:16;;;;;;;3.75;2.25;;;;;;;30.68;30.69;100026.41;1663146;86;21576;-75
2021/08/14 10:28:50;;;;;;;7.40;3.25;;;;;;;30.90;29.44;100023.85;1651684;86;21160;-74
2021/08/14 10:31:35;;;;;;;5.25;2.75;;;;;;;31.13;30.01;100030.79;1620945;87;20933;-74
2021/08/14 10:34:17;;;;;;;4.55;2.40;;;;;;;31.09;29.79;100027.84;1617982;88;21058;-74
2021/08/14 10:36:46;;;;;;;4.50;2.47;;;;;;;30.99;30.61;100027.48;1578313;89;20966;-74
2021/08/14 10:39:27;;;;;;;3.30;2.45;;;;;;;31.12;30.28;100027.75;1617874;88;21563;-74
2021/08/14 10:42:03;;;;;;;3.02;2.47;;;;;;;31.12;29.48;100019.86;1578516;91;20982;-73
2021/08/14 10:44:47;;;;;;;11.18;3.17;;;;;;;30.99;29.78;100016.14;1617831;88;20961;-73
2021/08/14 10:47:40;;;;;;;5.90;2.45;;;;;;;30.98;30.17;100013.13;1578520;91;20978;-74
2021/08/14 10:50:07;;;;;;;3.22;2.25;;;;;;;31.10;29.69;100019.51;1651217;86;21530;-74
2021/08/14 10:52:36;;;;;;;4.22;2.37;;;;;;;31.27;27.92;100013.99;1652199;86;20949;-72
2021/08/14 10:55:09;;;;;;;3.70;2.20;;;;;;;31.32;27.66;100010.62;1652552;86;21766;-72
2021/08/14 10:57:43;;;;;;;8.58;2.50;;;;;;;31.32;28.15;100014.88;1634608;87;20949;-73
2021/08/14 11:00:17;;;;;;;3.75;2.20;;;;;;;31.17;27.30;100005.97;1652584;86;20970;-73
2021/08/14 11:03:04;;;;;;;3.67;2.30;;;;;;;31.06;27.80;100006.05;1652031;86;21529;-74
2021/08/14 11:05:31;;;;;;;3.27;2.27;;;;;;;31.07;27.81;100004.80;1652444;86;21468;-73
2021/08/14 11:08:00;;;;;;;5.62;1.92;;;;;;;31.26;28.06;100010.98;1652369;86;20922;-74
2021/08/14 11:10:34;;;;;;;3.33;2.37;;;;;;;31.46;26.14;100008.02;1614546;86;21483;-74
2021/08/14 11:13:03;;;;;;;5.60;2.10;;;;;;;31.22;26.46;99998.14;1654662;85;43050;-74
2021/08/14 11:15:38;;;;;;;3.42;2.47;;;;;;;31.11;27.87;100004.89;1658194;86;20991;-74
2021/08/14 11:18:05;;;;;;;3.27;2.30;;;;;;;31.16;26.93;99995.88;1630301;88;20908;-74
2021/08/14 11:20:39;;;;;;;3.70;2.42;;;;;;;31.17;27.74;99993.22;1629985;88;21498;-74
2021/08/14 11:23:26;;;;;;;4.55;2.15;;;;;;;31.32;28.75;100001.31;1638828;87;20948;-74
2021/08/14 11:25:54;;;;;;;6.35;2.20;;;;;;;31.47;28.12;99996.84;1638776;87;21549;-74